Time;durP1;ratioP1;P1;durP2;ratioP2;P2;SDS_P1;SDS_P2;PMS_P1;PMS_P2;Temp;Humidity;BMP_temperature;BMP_pressure;BME280_temperature;BME280_humidity;BME280_pressure;Samples;Min_cycle;Max_cycle;Signal;HPM_P1;HPM_P2
2022/08/09 00:01:42;;;;;;;7.57;4.45;;;14.10;99.90;;;;;;5039450;28;20122;-69
2022/08/09 00:04:07;;;;;;;8.63;4.05;;;14.00;99.90;;;;;;5032772;28;20038;-68
2022/08/09 00:06:33;;;;;;;7.35;5.05;;;14.00;99.90;;;;;;5035455;28;20044;-69
2022/08/09 00:08:59;;;;;;;5.50;4.80;;;14.00;99.90;;;;;;5046885;28;20053;-68
2022/08/09 00:11:24;;;;;;;7.78;4.85;;;14.00;99.90;;;;;;5047547;28;20044;-69
2022/08/09 00:13:50;;;;;;;4.80;4.22;;;14.00;99.90;;;;;;5029014;28;20053;-69
2022/08/09 00:16:17;;;;;;;7.90;4.75;;;14.00;99.90;;;;;;5028083;28;20049;-69
2022/08/09 00:18:43;;;;;;;5.28;4.50;;;13.90;99.90;;;;;;5037030;28;20558;-69
2022/08/09 00:21:09;;;;;;;9.07;5.45;;;13.90;99.90;;;;;;5027956;28;20049;-69
2022/08/09 00:23:36;;;;;;;8.60;5.28;;;13.90;99.90;;;;;;5041275;28;20114;-68
2022/08/09 00:26:02;;;;;;;7.00;5.15;;;13.90;99.90;;;;;;5031195;28;20492;-69
2022/08/09 00:28:28;;;;;;;5.95;5.03;;;13.90;99.90;;;;;;5035410;28;20052;-68
2022/08/09 00:30:55;;;;;;;8.65;5.07;;;13.80;99.90;;;;;;5040696;28;20049;-69
2022/08/09 00:33:21;;;;;;;7.82;5.50;;;13.90;99.90;;;;;;5031826;28;20485;-68
2022/08/09 00:35:47;;;;;;;6.40;4.80;;;13.80;99.90;;;;;;5032741;28;20048;-68
2022/08/09 00:38:13;;;;;;;6.00;4.85;;;13.80;99.90;;;;;;5036566;28;20506;-68
2022/08/09 00:40:39;;;;;;;7.32;4.90;;;13.80;99.90;;;;;;5051324;28;20057;-68
2022/08/09 00:43:05;;;;;;;6.47;4.82;;;13.80;99.90;;;;;;5036995;28;20033;-68
2022/08/09 00:45:31;;;;;;;7.13;5.78;;;13.80;99.90;;;;;;5051170;28;20053;-69
2022/08/09 00:47:56;;;;;;;7.35;5.10;;;13.80;99.90;;;;;;5034757;28;20489;-68
2022/08/09 00:50:23;;;;;;;6.50;4.60;;;13.70;99.90;;;;;;5052429;28;20412;-69
2022/08/09 00:52:51;;;;;;;5.53;4.90;;;13.70;99.90;;;;;;5046571;28;20048;-69
2022/08/09 00:55:16;;;;;;;5.65;4.35;;;13.70;99.90;;;;;;5032317;28;20060;-69
2022/08/09 00:57:42;;;;;;;5.72;4.47;;;13.70;99.90;;;;;;5033526;28;20060;-69
2022/08/09 01:00:09;;;;;;;7.10;4.78;;;13.60;99.90;;;;;;5052694;28;20060;-69
2022/08/09 01:02:40;;;;;;;6.10;5.22;;;13.70;99.90;;;;;;5046809;28;20045;-69
2022/08/09 01:05:09;;;;;;;6.88;4.97;;;13.60;99.90;;;;;;5044232;28;20049;-69
2022/08/09 01:07:53;;;;;;;7.55;5.07;;;13.60;99.90;;;;;;5035968;28;20402;-69
2022/08/09 01:10:47;;;;;;;6.85;4.78;;;13.60;99.90;;;;;;5052060;28;20072;-68
2022/08/09 01:13:31;;;;;;;7.95;4.72;;;13.60;99.90;;;;;;5038157;28;20049;-68
2022/08/09 01:15:59;;;;;;;7.38;5.13;;;13.60;99.90;;;;;;5031873;28;20060;-69
2022/08/09 01:18:29;;;;;;;5.90;4.85;;;13.60;99.90;;;;;;5015515;28;20124;-69
2022/08/09 01:21:33;;;;;;;6.03;5.43;;;13.60;99.90;;;;;;5041404;28;20051;-69
2022/08/09 01:24:12;;;;;;;5.68;5.10;;;13.60;99.90;;;;;;5031453;28;20091;-69
2022/08/09 01:27:03;;;;;;;6.13;4.55;;;13.50;99.90;;;;;;5021517;28;20045;-69
2022/08/09 01:29:50;;;;;;;6.10;4.70;;;13.50;99.90;;;;;;5050784;28;20139;-68
2022/08/09 01:32:18;;;;;;;5.10;4.60;;;13.50;99.90;;;;;;5050800;28;20049;-68
2022/08/09 01:34:48;;;;;;;5.82;4.65;;;13.50;99.90;;;;;;5048172;28;20138;-68
2022/08/09 01:37:17;;;;;;;5.03;4.53;;;13.40;99.90;;;;;;5015680;28;20037;-68
2022/08/09 01:39:44;;;;;;;5.25;4.35;;;13.40;99.90;;;;;;5043337;28;20069;-68
2022/08/09 01:42:10;;;;;;;5.97;4.60;;;13.50;99.90;;;;;;5031795;28;20045;-69
2022/08/09 01:44:37;;;;;;;4.63;4.07;;;13.40;99.90;;;;;;5049748;28;20148;-69
2022/08/09 01:47:04;;;;;;;4.88;4.13;;;13.40;99.90;;;;;;5034243;28;20063;-67
2022/08/09 01:49:34;;;;;;;6.70;4.55;;;13.30;99.90;;;;;;5051108;28;20060;-68
2022/08/09 01:52:04;;;;;;;5.88;4.60;;;13.30;99.90;;;;;;5051203;28;20568;-68
2022/08/09 01:54:51;;;;;;;7.00;4.68;;;13.30;99.90;;;;;;5046062;28;20120;-69
2022/08/09 01:57:27;;;;;;;6.97;4.50;;;13.30;99.90;;;;;;5015129;28;20512;-68
2022/08/09 01:59:57;;;;;;;5.75;4.55;;;13.20;99.90;;;;;;5031544;28;20046;-68
2022/08/09 02:02:26;;;;;;;5.35;4.50;;;13.20;99.90;;;;;;5037409;28;20136;-68
2022/08/09 02:04:55;;;;;;;4.80;4.30;;;13.20;99.90;;;;;;5050023;28;20032;-68
2022/08/09 02:07:25;;;;;;;5.63;4.35;;;13.20;99.90;;;;;;5020767;28;20124;-67
2022/08/09 02:09:58;;;;;;;5.88;4.25;;;13.20;99.90;;;;;;5039776;28;20038;-69
2022/08/09 02:12:25;;;;;;;7.43;4.72;;;13.20;99.90;;;;;;5037520;28;20045;-68
2022/08/09 02:14:53;;;;;;;8.70;4.78;;;13.20;99.90;;;;;;5039332;28;20106;-69
2022/08/09 02:17:23;;;;;;;5.25;4.72;;;13.20;99.90;;;;;;5016273;28;20087;-68
2022/08/09 02:19:49;;;;;;;7.25;4.97;;;13.20;99.90;;;;;;5030931;28;20045;-69
2022/08/09 02:22:40;;;;;;;7.43;5.10;;;13.10;99.90;;;;;;5050298;28;20041;-68
2022/08/09 02:25:24;;;;;;;6.82;5.05;;;13.10;99.90;;;;;;5035781;28;20080;-68
2022/08/09 02:27:55;;;;;;;6.45;5.78;;;13.10;99.90;;;;;;5033104;28;20583;-68
2022/08/09 02:30:21;;;;;;;7.30;5.47;;;13.10;99.90;;;;;;5043588;28;20049;-68
2022/08/09 02:32:47;;;;;;;6.28;4.70;;;13.10;99.90;;;;;;5029969;28;20405;-68
2022/08/09 02:35:23;;;;;;;7.38;5.00;;;13.10;99.90;;;;;;5030503;28;20041;-69
2022/08/09 02:37:53;;;;;;;5.38;4.70;;;13.00;99.90;;;;;;5015102;28;20771;-68
2022/08/09 02:40:21;;;;;;;8.02;4.78;;;13.00;99.90;;;;;;5029965;28;20713;-68
2022/08/09 02:42:50;;;;;;;5.60;4.43;;;13.00;99.90;;;;;;5035591;28;20051;-68
2022/08/09 02:45:22;;;;;;;5.53;4.55;;;13.00;99.90;;;;;;5050428;28;20045;-68
2022/08/09 02:47:50;;;;;;;4.68;4.00;;;12.90;99.90;;;;;;5018643;28;20034;-68
2022/08/09 02:50:24;;;;;;;5.95;3.97;;;12.80;99.90;;;;;;5030360;28;20080;-69
2022/08/09 02:52:55;;;;;;;5.00;3.83;;;12.70;99.90;;;;;;5029441;28;20037;-68
2022/08/09 02:55:23;;;;;;;5.80;4.22;;;12.70;99.90;;;;;;5041255;28;20049;-68
2022/08/09 02:57:50;;;;;;;5.13;4.50;;;12.70;99.90;;;;;;5033909;28;20048;-68
2022/08/09 03:00:16;;;;;;;7.82;4.10;;;12.70;99.90;;;;;;5038431;28;20111;-68
2022/08/09 03:02:46;;;;;;;4.32;2.60;;;12.70;99.90;;;;;;5034340;28;20049;-69
2022/08/09 03:05:12;;;;;;;6.28;4.63;;;12.60;99.90;;;;;;5050073;28;20057;-69
2022/08/09 03:07:39;;;;;;;7.03;4.72;;;12.60;99.90;;;;;;5033358;28;20040;-69
2022/08/09 03:10:07;;;;;;;8.15;4.88;;;12.60;99.90;;;;;;5050046;28;20048;-68
2022/08/09 03:12:35;;;;;;;6.38;4.25;;;12.70;99.90;;;;;;5039256;28;20053;-68
2022/08/09 03:15:02;;;;;;;5.30;4.07;;;12.70;99.90;;;;;;5039035;28;20048;-68
2022/08/09 03:17:29;;;;;;;4.45;3.13;;;12.70;99.90;;;;;;5013970;28;20038;-67
2022/08/09 03:19:59;;;;;;;5.05;2.60;;;12.70;99.90;;;;;;5030978;28;20472;-68
2022/08/09 03:22:26;;;;;;;3.45;2.20;;;12.70;99.90;;;;;;5047320;28;20041;-68
2022/08/09 03:24:52;;;;;;;3.13;2.05;;;12.70;99.90;;;;;;5037118;28;20731;-69
2022/08/09 03:27:19;;;;;;;2.72;1.58;;;12.60;99.90;;;;;;5021763;28;20045;-68
2022/08/09 03:29:46;;;;;;;4.68;1.40;;;12.60;99.90;;;;;;5032646;28;20393;-68
2022/08/09 03:32:13;;;;;;;1.80;1.33;;;12.60;99.90;;;;;;5029076;28;20049;-68
2022/08/09 03:34:38;;;;;;;1.75;1.05;;;12.60;99.90;;;;;;5029824;28;20045;-69
2022/08/09 03:37:05;;;;;;;1.35;0.95;;;12.50;99.90;;;;;;5013696;28;20518;-69
2022/08/09 03:39:30;;;;;;;1.92;0.80;;;12.50;99.90;;;;;;5029136;28;20048;-69
2022/08/09 03:41:56;;;;;;;1.63;0.75;;;12.40;99.90;;;;;;5029574;28;20049;-68
2022/08/09 03:44:24;;;;;;;1.50;1.00;;;12.50;99.90;;;;;;5044053;28;20079;-68
2022/08/09 03:46:50;;;;;;;1.88;1.20;;;12.50;99.90;;;;;;5027067;28;20503;-68
2022/08/09 03:49:17;;;;;;;2.80;1.08;;;12.30;99.90;;;;;;5028551;28;20088;-69
2022/08/09 03:51:46;;;;;;;1.65;1.10;;;12.40;99.90;;;;;;5029666;28;20054;-69
2022/08/09 03:54:13;;;;;;;3.33;1.20;;;12.40;99.90;;;;;;5024261;28;20087;-68
2022/08/09 03:56:39;;;;;;;2.55;0.88;;;12.30;99.90;;;;;;5014409;28;20054;-69
2022/08/09 03:59:06;;;;;;;1.30;0.82;;;12.30;99.90;;;;;;5029610;28;20068;-68
2022/08/09 04:01:33;;;;;;;4.45;1.08;;;12.30;99.90;;;;;;5043164;28;20045;-68
2022/08/09 04:04:00;;;;;;;7.65;1.50;;;12.30;99.90;;;;;;5032486;28;20053;-68
2022/08/09 04:06:26;;;;;;;14.65;1.50;;;12.30;99.90;;;;;;5468554;22;20593;-69
2022/08/09 04:08:51;;;;;;;25.98;2.05;;;12.20;99.90;;;;;;5004594;28;20454;-69
2022/08/09 04:11:17;;;;;;;51.78;2.75;;;12.30;99.90;;;;;;4996960;28;20069;-69
2022/08/09 04:13:43;;;;;;;22.88;1.88;;;12.20;99.90;;;;;;5009424;28;20046;-69
2022/08/09 04:16:08;;;;;;;14.82;1.80;;;12.20;99.90;;;;;;5010150;28;20054;-69
2022/08/09 04:18:34;;;;;;;8.60;1.77;;;12.30;99.90;;;;;;4998036;28;20528;-69
2022/08/09 04:21:00;;;;;;;5.22;2.20;;;12.20;99.90;;;;;;4991588;28;20048;-69
2022/08/09 04:23:25;;;;;;;5.22;1.77;;;12.20;99.90;;;;;;5005677;28;20046;-69
2022/08/09 04:25:52;;;;;;;3.25;2.03;;;12.20;99.90;;;;;;4993233;28;20089;-69
2022/08/09 04:28:20;;;;;;;4.25;1.92;;;12.20;99.90;;;;;;4994842;28;20354;-69
2022/08/09 04:30:45;;;;;;;4.57;2.30;;;12.30;99.90;;;;;;5011304;28;20044;-69
2022/08/09 04:33:11;;;;;;;6.25;2.20;;;12.30;99.90;;;;;;5006000;28;20421;-68
2022/08/09 04:35:39;;;;;;;19.88;2.50;;;12.30;99.90;;;;;;5001059;28;20054;-69
2022/08/09 04:38:05;;;;;;;18.58;2.40;;;12.30;99.90;;;;;;4982598;28;20054;-69
2022/08/09 04:40:48;;;;;;;10.98;2.45;;;12.30;99.90;;;;;;5011169;28;20386;-69
2022/08/09 04:43:17;;;;;;;12.93;2.70;;;12.40;99.90;;;;;;5009612;28;20112;-69
2022/08/09 04:45:44;;;;;;;6.75;2.33;;;12.40;99.90;;;;;;5010829;28;20037;-69
2022/08/09 04:48:11;;;;;;;6.65;2.50;;;12.50;99.90;;;;;;4994071;28;20393;-69
2022/08/09 04:50:37;;;;;;;11.05;2.45;;;12.50;99.90;;;;;;4998845;28;20050;-69
2022/08/09 04:53:06;;;;;;;10.57;2.50;;;12.50;99.90;;;;;;4990568;28;20046;-69
2022/08/09 04:55:32;;;;;;;16.38;2.67;;;12.50;99.90;;;;;;5003600;28;20050;-70
2022/08/09 04:57:58;;;;;;;6.90;3.00;;;12.70;99.90;;;;;;5009708;28;20080;-69
2022/08/09 05:00:23;;;;;;;4.15;3.25;;;12.70;99.90;;;;;;5009997;28;20089;-68
2022/08/09 05:02:49;;;;;;;5.38;3.20;;;12.80;99.90;;;;;;4996603;28;20705;-69
2022/08/09 05:05:15;;;;;;;8.50;3.40;;;12.90;99.90;;;;;;5010502;28;20447;-68
2022/08/09 05:07:40;;;;;;;5.57;3.45;;;13.00;99.90;;;;;;4992572;28;20080;-69
2022/08/09 05:10:07;;;;;;;6.25;3.67;;;12.90;99.90;;;;;;5010213;28;20049;-69
2022/08/09 05:12:33;;;;;;;4.93;3.58;;;13.00;99.90;;;;;;5001439;28;20050;-69
2022/08/09 05:14:59;;;;;;;4.45;3.47;;;13.00;99.90;;;;;;5008081;28;20087;-69
2022/08/09 05:17:24;;;;;;;4.15;3.38;;;13.10;99.90;;;;;;4974447;28;20096;-69
2022/08/09 05:19:50;;;;;;;6.72;4.00;;;13.10;99.90;;;;;;4990353;28;20058;-69
2022/08/09 05:22:15;;;;;;;5.18;3.65;;;13.20;99.90;;;;;;4997059;28;20054;-69
2022/08/09 05:24:41;;;;;;;5.00;3.90;;;13.40;99.90;;;;;;5007067;28;20122;-69
2022/08/09 05:27:07;;;;;;;8.75;4.70;;;13.50;99.90;;;;;;4993986;28;20539;-69
2022/08/09 05:29:33;;;;;;;6.53;5.07;;;13.70;99.90;;;;;;5010152;28;20127;-69
2022/08/09 05:32:01;;;;;;;11.32;6.25;;;14.20;99.90;;;;;;5010192;28;20057;-70
2022/08/09 05:34:30;;;;;;;12.30;6.70;;;14.60;99.90;;;;;;5008858;28;20050;-70
2022/08/09 05:36:57;;;;;;;11.75;7.15;;;14.90;99.90;;;;;;4994701;28;20056;-70
2022/08/09 05:39:23;;;;;;;11.70;7.60;;;15.30;99.90;;;;;;4993333;28;20050;-70
2022/08/09 05:41:49;;;;;;;11.48;7.03;;;15.60;99.90;;;;;;4996298;28;20042;-70
2022/08/09 05:44:16;;;;;;;8.93;6.90;;;16.00;99.90;;;;;;5007136;28;20077;-70
2022/08/09 05:46:42;;;;;;;9.00;6.00;;;16.30;99.90;;;;;;4989299;28;20128;-70
2022/08/09 05:49:07;;;;;;;8.55;5.60;;;16.70;99.90;;;;;;4987977;28;20208;-70
2022/08/09 05:51:33;;;;;;;9.60;5.97;;;16.90;99.90;;;;;;4989710;28;20061;-70
2022/08/09 05:53:59;;;;;;;6.75;5.15;;;17.20;99.90;;;;;;4989388;28;20050;-70
2022/08/09 05:56:26;;;;;;;8.65;5.57;;;17.50;99.90;;;;;;4984062;28;20626;-71
2022/08/09 05:58:56;;;;;;;6.55;5.45;;;17.80;99.90;;;;;;5005678;28;20042;-70
2022/08/09 06:01:24;;;;;;;10.82;5.40;;;18.00;99.90;;;;;;4989932;28;20047;-70
2022/08/09 06:03:50;;;;;;;7.90;5.43;;;18.20;99.90;;;;;;5018471;28;20041;-70
2022/08/09 06:06:15;;;;;;;8.35;5.07;;;18.20;99.90;;;;;;4998603;28;20093;-71
2022/08/09 06:08:41;;;;;;;14.73;5.47;;;18.40;99.90;;;;;;5003945;28;20072;-70
2022/08/09 06:11:07;;;;;;;14.15;5.20;;;18.40;99.90;;;;;;5004316;28;20523;-70
2022/08/09 06:13:33;;;;;;;9.45;5.05;;;18.20;99.90;;;;;;5007060;28;20080;-71
2022/08/09 06:15:59;;;;;;;13.30;4.57;;;18.40;99.90;;;;;;5013676;28;20065;-70
2022/08/09 06:18:25;;;;;;;9.65;4.53;;;18.50;99.90;;;;;;4992789;28;20038;-70
2022/08/09 06:20:55;;;;;;;7.88;4.88;;;18.80;99.90;;;;;;5009109;28;20543;-71
2022/08/09 06:23:21;;;;;;;9.50;4.23;;;18.90;99.90;;;;;;5003673;28;20049;-70
2022/08/09 06:25:47;;;;;;;8.40;4.90;;;18.80;99.90;;;;;;4989477;28;20416;-70
2022/08/09 06:28:13;;;;;;;5.95;4.22;;;18.70;99.90;;;;;;4972768;28;20034;-71
2022/08/09 06:30:39;;;;;;;6.53;3.97;;;18.70;99.90;;;;;;4987952;28;20054;-71
2022/08/09 06:33:05;;;;;;;6.07;3.95;;;18.80;99.90;;;;;;4997992;28;20140;-71
2022/08/09 06:35:30;;;;;;;6.57;4.70;;;18.80;99.90;;;;;;5013215;28;20580;-71
2022/08/09 06:37:56;;;;;;;7.57;3.70;;;18.90;99.90;;;;;;4978023;28;20478;-70
2022/08/09 06:40:22;;;;;;;5.80;4.13;;;18.80;99.90;;;;;;4987702;28;20400;-71
2022/08/09 06:42:48;;;;;;;9.65;3.88;;;18.80;99.90;;;;;;4999733;28;20107;-71
2022/08/09 06:45:13;;;;;;;5.72;3.67;;;18.60;99.90;;;;;;4996831;28;20121;-71
2022/08/09 06:47:39;;;;;;;6.22;3.67;;;18.60;99.90;;;;;;4976702;28;20066;-71
2022/08/09 06:50:06;;;;;;;5.47;3.45;;;18.90;99.90;;;;;;4995622;28;20057;-71
2022/08/09 06:52:31;;;;;;;5.95;3.40;;;18.90;99.90;;;;;;4994614;28;20409;-71
2022/08/09 06:54:57;;;;;;;6.97;3.22;;;18.70;99.90;;;;;;5008876;28;20050;-71
2022/08/09 06:57:23;;;;;;;4.82;3.42;;;18.90;99.90;;;;;;4989598;28;20057;-70
2022/08/09 06:59:48;;;;;;;8.02;4.10;;;18.80;99.90;;;;;;4987853;28;20400;-71
2022/08/09 07:02:14;;;;;;;6.85;3.60;;;18.90;99.90;;;;;;4987288;28;20593;-70
2022/08/09 07:04:40;;;;;;;6.40;3.78;;;18.90;99.90;;;;;;5008616;28;20045;-72
2022/08/09 07:07:06;;;;;;;6.22;3.75;;;18.90;99.90;;;;;;4992134;28;20049;-70
2022/08/09 07:09:31;;;;;;;5.18;3.22;;;18.70;99.90;;;;;;5008162;28;20057;-71
2022/08/09 07:11:57;;;;;;;4.80;3.03;;;18.90;99.90;;;;;;4999226;28;20057;-71
2022/08/09 07:14:23;;;;;;;6.70;3.58;;;19.00;99.90;;;;;;4987547;28;20072;-70
2022/08/09 07:16:48;;;;;;;4.78;3.10;;;19.00;99.90;;;;;;4982939;28;20410;-71
2022/08/09 07:19:14;;;;;;;4.18;3.22;;;19.00;99.90;;;;;;4986336;28;20093;-70
2022/08/09 07:21:42;;;;;;;4.45;2.78;;;19.00;99.90;;;;;;4991072;28;20050;-71
2022/08/09 07:24:08;;;;;;;7.55;2.90;;;19.10;99.90;;;;;;5004814;28;20057;-71
2022/08/09 07:26:34;;;;;;;4.93;2.80;;;19.00;99.90;;;;;;4990802;28;20449;-73
2022/08/09 07:29:00;;;;;;;6.15;2.30;;;19.10;99.90;;;;;;4984955;28;20391;-71
2022/08/09 07:31:25;;;;;;;6.32;2.58;;;19.20;99.90;;;;;;4988496;28;20646;-70
2022/08/09 07:33:51;;;;;;;4.20;2.30;;;19.10;99.90;;;;;;5005961;28;20136;-71
2022/08/09 07:36:17;;;;;;;4.20;2.45;;;19.10;99.90;;;;;;4999560;28;20048;-71
2022/08/09 07:38:42;;;;;;;6.35;2.47;;;19.20;99.90;;;;;;5006213;28;20045;-71
2022/08/09 07:41:08;;;;;;;4.20;1.90;;;19.10;99.90;;;;;;5011901;28;20380;-71
2022/08/09 07:43:34;;;;;;;4.15;1.90;;;19.10;99.90;;;;;;5011749;28;20049;-71
2022/08/09 07:46:00;;;;;;;3.17;1.40;;;19.20;99.90;;;;;;5011348;28;20042;-71
2022/08/09 07:48:25;;;;;;;4.30;1.75;;;19.20;99.90;;;;;;4976954;28;20410;-71
2022/08/09 07:50:51;;;;;;;2.85;1.63;;;19.10;99.90;;;;;;4988372;28;20054;-71
2022/08/09 07:53:17;;;;;;;5.32;2.00;;;19.00;99.90;;;;;;5010960;28;20147;-71
2022/08/09 07:55:43;;;;;;;3.67;1.60;;;19.00;99.90;;;;;;5010674;28;20073;-71
2022/08/09 07:58:08;;;;;;;2.78;1.48;;;19.10;99.90;;;;;;4994184;28;20042;-70
2022/08/09 08:00:34;;;;;;;1.92;1.73;;;19.20;99.90;;;;;;5010330;28;20390;-70
2022/08/09 08:03:01;;;;;;;3.63;1.98;;;19.10;99.90;;;;;;5010966;28;20409;-70
2022/08/09 08:05:27;;;;;;;3.35;1.80;;;19.30;99.90;;;;;;5011223;28;20050;-70
2022/08/09 08:07:53;;;;;;;2.60;1.70;;;19.10;99.90;;;;;;4995517;28;20536;-70
2022/08/09 08:10:20;;;;;;;3.88;1.95;;;19.10;99.90;;;;;;5009911;28;20084;-70
2022/08/09 08:12:47;;;;;;;2.40;1.55;;;18.90;99.90;;;;;;5007831;28;20458;-71
2022/08/09 08:15:16;;;;;;;2.08;1.20;;;19.00;99.90;;;;;;5014623;28;20083;-71
2022/08/09 08:17:42;;;;;;;1.67;0.90;;;19.00;99.90;;;;;;4975565;28;20568;-71
2022/08/09 08:20:09;;;;;;;5.80;1.95;;;19.00;99.90;;;;;;4992041;28;20045;-70
2022/08/09 08:22:34;;;;;;;2.92;1.58;;;19.20;99.90;;;;;;4999324;28;20050;-70
2022/08/09 08:25:00;;;;;;;2.63;1.20;;;19.30;99.90;;;;;;5008594;28;20053;-71
2022/08/09 08:27:26;;;;;;;2.17;1.30;;;19.30;99.90;;;;;;4975356;28;20046;-70
2022/08/09 08:29:52;;;;;;;3.97;1.35;;;19.40;99.90;;;;;;4991602;28;20085;-71
2022/08/09 08:32:19;;;;;;;3.75;1.50;;;19.50;99.90;;;;;;4990722;28;20054;-70
2022/08/09 08:34:45;;;;;;;1.73;0.93;;;19.50;99.90;;;;;;4990553;28;20054;-71
2022/08/09 08:37:11;;;;;;;1.45;0.77;;;19.60;99.90;;;;;;4975850;28;20065;-72
2022/08/09 08:39:37;;;;;;;2.58;1.20;;;19.60;99.90;;;;;;4991484;28;20054;-70
2022/08/09 08:42:03;;;;;;;3.95;1.40;;;19.60;99.90;;;;;;4998260;28;20076;-69
2022/08/09 08:44:33;;;;;;;3.25;1.30;;;19.60;99.90;;;;;;5009783;28;20498;-71
2022/08/09 08:46:59;;;;;;;4.22;1.30;;;19.60;99.90;;;;;;4986663;28;20162;-70
2022/08/09 08:49:25;;;;;;;3.15;0.73;;;19.70;99.90;;;;;;4992626;28;20116;-71
2022/08/09 08:51:51;;;;;;;1.45;0.50;;;19.70;99.90;;;;;;5005254;28;20069;-71
2022/08/09 08:54:17;;;;;;;2.35;0.68;;;19.60;99.90;;;;;;5003317;28;20038;-71
2022/08/09 08:56:44;;;;;;;3.10;0.63;;;19.70;99.90;;;;;;4988936;28;20045;-71
2022/08/09 08:59:12;;;;;;;2.78;0.70;;;19.70;99.90;;;;;;5000276;28;20481;-71
2022/08/09 09:01:43;;;;;;;1.20;0.60;;;19.80;99.90;;;;;;4998462;28;20464;-71
2022/08/09 09:04:10;;;;;;;2.38;0.55;;;19.90;99.90;;;;;;5001347;28;20054;-71
2022/08/09 09:06:40;;;;;;;4.18;0.95;;;20.00;99.90;;;;;;4985671;28;20053;-72
2022/08/09 09:09:06;;;;;;;2.88;1.08;;;19.90;99.90;;;;;;4997479;28;20074;-71
2022/08/09 09:11:36;;;;;;;2.85;0.82;;;19.90;99.90;;;;;;5001507;28;20509;-70
2022/08/09 09:14:19;;;;;;;2.45;0.75;;;19.90;99.90;;;;;;4998516;28;20077;-71
2022/08/09 09:16:45;;;;;;;1.67;0.80;;;19.90;99.90;;;;;;4981572;28;20081;-71
2022/08/09 09:19:11;;;;;;;2.13;0.90;;;19.90;99.90;;;;;;4999394;28;20073;-70
2022/08/09 09:21:58;;;;;;;2.72;0.73;;;19.90;99.90;;;;;;5003435;28;20046;-71
2022/08/09 09:24:28;;;;;;;2.70;0.70;;;19.90;99.90;;;;;;4998627;28;20136;-71
2022/08/09 09:26:58;;;;;;;0.70;0.30;;;20.00;99.90;;;;;;4994989;28;20069;-71
2022/08/09 09:29:36;;;;;;;1.77;0.70;;;20.20;99.90;;;;;;5009474;28;20061;-71
2022/08/09 09:32:03;;;;;;;1.42;0.50;;;20.60;99.90;;;;;;4990477;28;20528;-70
2022/08/09 09:34:29;;;;;;;1.38;0.38;;;20.60;99.90;;;;;;4989511;28;20054;-71
2022/08/09 09:36:56;;;;;;;1.02;0.30;;;20.70;99.90;;;;;;4975191;28;20042;-71
2022/08/09 09:39:24;;;;;;;1.77;0.30;;;20.90;99.90;;;;;;4988626;28;20089;-70
2022/08/09 09:41:51;;;;;;;1.90;0.50;;;21.00;99.90;;;;;;4994954;28;20470;-70
2022/08/09 09:44:28;;;;;;;1.10;0.30;;;21.00;99.90;;;;;;4993816;28;20057;-70
2022/08/09 09:47:18;;;;;;;2.33;0.47;;;21.10;99.90;;;;;;4976536;28;20537;-70
2022/08/09 09:49:54;;;;;;;1.80;0.32;;;20.90;99.90;;;;;;4991262;28;20046;-72
2022/08/09 09:52:20;;;;;;;1.38;0.30;;;21.00;99.90;;;;;;4989378;28;20133;-70
2022/08/09 09:54:46;;;;;;;1.30;0.30;;;21.10;99.90;;;;;;4989176;28;20050;-70
2022/08/09 09:57:21;;;;;;;0.68;0.20;;;21.10;99.90;;;;;;4973595;28;20054;-70
2022/08/09 09:59:49;;;;;;;1.45;0.40;;;21.00;99.90;;;;;;5000008;28;20041;-70
2022/08/09 10:02:17;;;;;;;2.45;0.35;;;20.90;99.90;;;;;;5010535;28;20617;-71
2022/08/09 10:04:44;;;;;;;2.28;0.60;;;21.00;99.90;;;;;;5013597;28;20045;-70
2022/08/09 10:07:26;;;;;;;2.30;0.60;;;20.90;99.90;;;;;;5001741;28;20493;-70
2022/08/09 10:09:56;;;;;;;1.23;0.50;;;20.90;99.90;;;;;;5019325;28;20072;-70
2022/08/09 10:12:31;;;;;;;2.75;0.60;;;20.70;99.90;;;;;;5012160;28;20052;-71
2022/08/09 10:15:10;;;;;;;2.40;0.52;;;20.70;99.90;;;;;;5020435;28;20041;-70
2022/08/09 10:17:37;;;;;;;1.95;0.60;;;20.80;99.90;;;;;;5001013;28;20042;-70
2022/08/09 10:20:21;;;;;;;2.13;0.63;;;20.80;99.90;;;;;;5014701;28;20037;-70
2022/08/09 10:22:49;;;;;;;1.58;0.38;;;20.90;99.90;;;;;;5020702;28;20060;-71
2022/08/09 10:25:15;;;;;;;1.67;0.38;;;20.90;99.90;;;;;;5018018;28;20358;-70
2022/08/09 10:27:43;;;;;;;1.40;0.30;;;20.90;99.90;;;;;;5004521;28;20120;-70
2022/08/09 10:30:10;;;;;;;2.08;0.30;;;21.10;99.90;;;;;;5010760;28;20045;-69
2022/08/09 10:32:36;;;;;;;1.13;0.60;;;21.10;99.90;;;;;;5014930;28;20079;-72
2022/08/09 10:35:04;;;;;;;0.95;0.30;;;21.10;99.90;;;;;;5022062;28;20136;-71
2022/08/09 10:37:30;;;;;;;0.50;0.10;;;21.10;99.90;;;;;;5005118;28;20130;-71
2022/08/09 10:39:57;;;;;;;1.13;0.20;;;21.10;99.90;;;;;;5014745;28;20037;-70
2022/08/09 10:42:23;;;;;;;2.53;0.25;;;20.90;99.90;;;;;;5015887;28;20069;-71
2022/08/09 10:44:58;;;;;;;1.02;0.20;;;21.00;99.90;;;;;;5016208;28;20535;-70
2022/08/09 10:47:38;;;;;;;1.83;0.32;;;20.90;99.90;;;;;;5002540;28;20045;-70
2022/08/09 10:50:27;;;;;;;0.73;0.38;;;21.10;99.90;;;;;;5014513;28;20097;-73
2022/08/09 10:53:06;;;;;;;0.75;0.30;;;21.10;99.90;;;;;;5012703;28;20056;-71
2022/08/09 10:55:33;;;;;;;0.93;0.20;;;21.20;99.90;;;;;;5021351;28;20144;-70
2022/08/09 10:58:00;;;;;;;1.38;0.13;;;21.40;99.90;;;;;;4990612;28;20061;-70
2022/08/09 11:00:32;;;;;;;0.50;0.10;;;21.40;99.90;;;;;;4988433;28;20046;-71
2022/08/09 11:02:58;;;;;;;0.75;0.30;;;21.40;99.90;;;;;;4993818;28;20061;-70
2022/08/09 11:05:26;;;;;;;0.73;0.15;;;21.50;99.90;;;;;;5006996;28;20596;-70
2022/08/09 11:07:52;;;;;;;0.57;0.17;;;21.40;99.90;;;;;;4989657;28;20362;-70
2022/08/09 11:10:39;;;;;;;1.17;0.25;;;21.30;99.90;;;;;;4993336;28;20475;-70
2022/08/09 11:13:15;;;;;;;0.57;0.20;;;21.40;99.90;;;;;;5007247;28;20515;-72
2022/08/09 11:15:41;;;;;;;0.25;0.10;;;21.30;99.90;;;;;;4997129;28;20132;-70
2022/08/09 11:18:11;;;;;;;0.93;0.17;;;21.40;99.90;;;;;;4970958;28;20121;-71
2022/08/09 11:20:48;;;;;;;0.43;0.10;;;21.60;99.90;;;;;;4989004;28;20046;-70
2022/08/09 11:23:14;;;;;;;0.47;0.10;;;21.40;99.90;;;;;;4996010;28;20133;-70
2022/08/09 11:25:44;;;;;;;0.47;0.10;;;21.50;99.90;;;;;;5002901;28;20149;-70
2022/08/09 11:28:33;;;;;;;0.40;0.10;;;21.60;99.90;;;;;;4991562;28;20507;-71
2022/08/09 11:31:23;;;;;;;0.70;0.10;;;21.60;99.90;;;;;;5006864;28;20061;-71
2022/08/09 11:33:52;;;;;;;2.17;0.20;;;21.70;99.90;;;;;;5000642;28;20353;-70
2022/08/09 11:36:20;;;;;;;0.68;0.10;;;21.70;99.90;;;;;;4978849;28;20058;-71
2022/08/09 11:38:59;;;;;;;0.57;0.10;;;21.70;99.90;;;;;;4982507;28;20058;-71
2022/08/09 11:41:29;;;;;;;1.63;0.20;;;21.90;99.90;;;;;;4991294;28;20054;-70
2022/08/09 11:43:55;;;;;;;1.58;0.40;;;21.90;99.90;;;;;;5007165;28;20181;-70
2022/08/09 11:46:24;;;;;;;0.52;0.20;;;21.90;99.90;;;;;;4988979;28;20112;-72
2022/08/09 11:48:56;;;;;;;1.80;0.30;;;22.10;99.90;;;;;;4984672;28;20148;-72
2022/08/09 11:51:24;;;;;;;0.90;0.30;;;22.10;99.90;;;;;;5002877;28;20053;-70
2022/08/09 11:54:18;;;;;;;1.23;0.28;;;22.20;99.90;;;;;;5004542;28;20034;-70
2022/08/09 11:56:44;;;;;;;0.40;0.10;;;22.10;99.90;;;;;;4973833;28;20125;-70
2022/08/09 11:59:22;;;;;;;1.70;0.20;;;22.00;99.90;;;;;;4987389;28;20133;-70
2022/08/09 12:01:48;;;;;;;1.02;0.25;;;22.10;99.90;;;;;;4988826;28;20054;-70
2022/08/09 12:04:14;;;;;;;0.82;0.30;;;22.00;99.90;;;;;;5003767;28;20045;-71
2022/08/09 12:06:55;;;;;;;0.75;0.38;;;22.10;99.90;;;;;;4993660;28;20058;-70
2022/08/09 12:09:26;;;;;;;0.73;0.20;;;21.90;99.90;;;;;;5007037;28;20065;-70
2022/08/09 12:11:56;;;;;;;0.20;0.08;;;21.90;99.90;;;;;;5007597;28;20042;-70
2022/08/09 12:14:28;;;;;;;0.52;0.10;;;22.00;99.90;;;;;;5005684;28;20073;-72
2022/08/09 12:16:55;;;;;;;0.40;0.10;;;22.20;99.90;;;;;;4982719;28;20069;-73
2022/08/09 12:19:28;;;;;;;0.47;0.00;;;22.20;99.90;;;;;;4989153;28;20042;-72
2022/08/09 12:21:59;;;;;;;1.13;0.20;;;22.20;99.90;;;;;;5000040;28;20045;-72
2022/08/09 12:24:25;;;;;;;0.73;0.10;;;22.10;99.90;;;;;;5003731;28;20073;-70
2022/08/09 12:26:57;;;;;;;0.17;0.05;;;22.10;99.90;;;;;;4990388;28;20072;-72
2022/08/09 12:29:24;;;;;;;0.30;0.10;;;22.20;99.90;;;;;;5005231;28;20457;-71
2022/08/09 12:32:04;;;;;;;0.32;0.10;;;22.30;99.90;;;;;;5006052;28;20065;-70
2022/08/09 12:34:38;;;;;;;1.50;0.10;;;22.30;99.90;;;;;;5003824;28;20548;-71
2022/08/09 12:37:04;;;;;;;0.50;0.10;;;22.30;99.90;;;;;;4993087;28;20045;-70
2022/08/09 12:39:30;;;;;;;0.90;0.10;;;22.20;99.90;;;;;;5005559;28;20038;-69
2022/08/09 12:42:06;;;;;;;0.32;0.05;;;22.20;99.90;;;;;;5006471;28;20045;-70
2022/08/09 12:44:38;;;;;;;0.70;0.10;;;22.30;99.90;;;;;;5005987;28;20414;-69
2022/08/09 12:47:05;;;;;;;2.30;0.10;;;22.30;99.90;;;;;;5009022;28;20049;-66
2022/08/09 12:49:33;;;;;;;0.85;0.10;;;22.30;99.90;;;;;;5003805;28;20053;-69
2022/08/09 12:51:59;;;;;;;1.02;0.00;;;22.40;99.90;;;;;;5000253;28;20049;-69
2022/08/09 12:54:25;;;;;;;2.00;0.20;;;22.40;99.90;;;;;;4994949;28;20051;-69